Terminal Aerodrome Forecast
Issued by NWS Wilmington, OH

Home | Current Version | Previous Version | Text Only | Print | Product List | Glossary On
Versions: 1 2 3 4 5 6 7 8 9 10 11 12 13 14 15 16 17 18 19 20 21
000
FTUS41 KILN 041700 RRA
TAFCVG
TAF
KCVG 041743Z 0418/0524 22014KT P6SM SCT060 BKN120
     FM042300 23013KT P6SM -SHRA VCTS BKN050CB OVC150
     FM050200 21007KT P6SM SCT050 BKN120
     FM051500 22010KT P6SM SCT050=

USA.gov is the U.S. government's official web portal to all federal, state and local government web resources and services.